SAS12V ESGG-EKCH
Flight info
| Callsign | SAS12V |
|---|---|
| Flight time | 0h 26m |
| Altitude | 19000 |
| Route | TOPLA L996 ERNOV |
| Aircraft | A320/M-SDE3FGHIRWY/LB1 |
Departure
| Time | 2026-05-04 06:48 |
|---|---|
| Airport | Göteborg Landvetter Airport (ESGG) |
Arrival
| Time | 2026-05-04 07:14 |
|---|---|
| Airport | Copenhagen Kastrup Airport (EKCH) |
| Time | Latitude | Longitude | Altitude | Speed | Heading |
|---|---|---|---|---|---|
| 2026-05-04 06:20 | 57.67125 | 12.29623 | 512 ft | 0 kts | 116° |
| 2026-05-04 06:37 | 57.67126 | 12.29616 | 512 ft | 2 kts | 115° |
| 2026-05-04 06:38 | 57.67134 | 12.29589 | 512 ft | 2 kts | 117° |
| 2026-05-04 06:38 | 57.67141 | 12.29561 | 512 ft | 2 kts | 120° |
| 2026-05-04 06:40 | 57.67218 | 12.29568 | 513 ft | 0 kts | 205° |
| 2026-05-04 06:44 | 57.67204 | 12.29538 | 513 ft | 4 kts | 252° |
| 2026-05-04 06:44 | 57.67214 | 12.29471 | 512 ft | 7 kts | 293° |
| 2026-05-04 06:44 | 57.67247 | 12.29394 | 513 ft | 9 kts | 339° |
| 2026-05-04 06:45 | 57.67307 | 12.29427 | 513 ft | 10 kts | 25° |
| 2026-05-04 06:45 | 57.67372 | 12.29483 | 514 ft | 11 kts | 13° |
| 2026-05-04 06:45 | 57.67429 | 12.29400 | 514 ft | 12 kts | 298° |
| 2026-05-04 06:45 | 57.67460 | 12.29241 | 514 ft | 15 kts | 275° |
| 2026-05-04 06:46 | 57.67431 | 12.29036 | 512 ft | 17 kts | 231° |
| 2026-05-04 06:46 | 57.67298 | 12.28898 | 512 ft | 34 kts | 207° |
| 2026-05-04 06:46 | 57.66898 | 12.28528 | 508 ft | 95 kts | 207° |
| 2026-05-04 06:46 | 57.66130 | 12.27827 | 494 ft | 145 kts | 206° |
| 2026-05-04 06:48 | 57.57186 | 12.22528 | 3848 ft | 258 kts | 187° |
| 2026-05-04 06:48 | 57.55364 | 12.22433 | 4672 ft | 267 kts | 180° |
| 2026-05-04 06:49 | 57.53494 | 12.22871 | 4934 ft | 272 kts | 175° |
| 2026-05-04 06:50 | 57.39957 | 12.26832 | 9982 ft | 295 kts | 176° |
| 2026-05-04 06:51 | 57.37843 | 12.27394 | 10207 ft | 318 kts | 176° |
| 2026-05-04 06:51 | 57.35573 | 12.27992 | 10453 ft | 338 kts | 176° |
| 2026-05-04 06:51 | 57.33225 | 12.28618 | 11038 ft | 345 kts | 176° |
| 2026-05-04 06:51 | 57.30836 | 12.29262 | 11723 ft | 348 kts | 176° |
| 2026-05-04 06:52 | 57.28426 | 12.29914 | 12428 ft | 351 kts | 176° |
| 2026-05-04 06:52 | 57.25999 | 12.30573 | 13119 ft | 354 kts | 176° |
| 2026-05-04 06:52 | 57.23554 | 12.31232 | 13794 ft | 357 kts | 176° |
| 2026-05-04 06:52 | 57.21456 | 12.31794 | 14317 ft | 359 kts | 176° |
| 2026-05-04 06:53 | 57.18975 | 12.32456 | 14947 ft | 361 kts | 177° |
| 2026-05-04 06:53 | 57.16511 | 12.33114 | 15563 ft | 364 kts | 177° |
| 2026-05-04 06:53 | 57.13997 | 12.33787 | 16183 ft | 366 kts | 177° |
| 2026-05-04 06:53 | 57.11472 | 12.34446 | 16815 ft | 368 kts | 178° |
| 2026-05-04 06:54 | 57.08934 | 12.35082 | 17464 ft | 369 kts | 178° |
| 2026-05-04 06:54 | 57.06377 | 12.35709 | 18097 ft | 372 kts | 178° |
| 2026-05-04 06:54 | 57.03805 | 12.36335 | 18609 ft | 374 kts | 178° |
| 2026-05-04 06:54 | 57.01226 | 12.36963 | 18772 ft | 374 kts | 178° |
| 2026-05-04 06:55 | 56.98621 | 12.37602 | 18823 ft | 381 kts | 178° |
| 2026-05-04 06:55 | 56.95983 | 12.38249 | 18823 ft | 384 kts | 178° |
| 2026-05-04 06:55 | 56.93334 | 12.38903 | 18813 ft | 384 kts | 178° |
| 2026-05-04 06:55 | 56.90687 | 12.39557 | 18811 ft | 384 kts | 178° |
| 2026-05-04 06:56 | 56.88038 | 12.40213 | 18812 ft | 384 kts | 178° |
| 2026-05-04 06:57 | 56.69525 | 12.44764 | 18818 ft | 383 kts | 178° |
| 2026-05-04 06:58 | 56.66900 | 12.45398 | 18651 ft | 377 kts | 178° |
| 2026-05-04 06:58 | 56.64336 | 12.46023 | 18411 ft | 366 kts | 178° |
| 2026-05-04 06:58 | 56.61846 | 12.46632 | 18174 ft | 357 kts | 179° |
| 2026-05-04 06:58 | 56.59404 | 12.47228 | 17914 ft | 351 kts | 179° |
| 2026-05-04 06:59 | 56.56993 | 12.47812 | 17640 ft | 349 kts | 179° |
| 2026-05-04 06:59 | 56.54590 | 12.48391 | 17345 ft | 345 kts | 179° |
| 2026-05-04 06:59 | 56.52228 | 12.48959 | 16920 ft | 341 kts | 179° |
| 2026-05-04 06:59 | 56.49882 | 12.49522 | 16466 ft | 340 kts | 179° |
| 2026-05-04 07:01 | 56.33702 | 12.53393 | 13201 ft | 332 kts | 179° |
| 2026-05-04 07:01 | 56.31443 | 12.53938 | 12730 ft | 331 kts | 177° |
| 2026-05-04 07:02 | 56.29194 | 12.54966 | 12266 ft | 334 kts | 169° |
| 2026-05-04 07:02 | 56.26966 | 12.56146 | 11810 ft | 333 kts | 169° |
| 2026-05-04 07:02 | 56.24751 | 12.57338 | 11365 ft | 331 kts | 169° |
| 2026-05-04 07:02 | 56.22517 | 12.58549 | 10824 ft | 330 kts | 168° |
| 2026-05-04 07:03 | 56.20770 | 12.59499 | 10546 ft | 320 kts | 168° |
| 2026-05-04 07:03 | 56.18646 | 12.60649 | 10413 ft | 309 kts | 169° |
| 2026-05-04 07:03 | 56.16619 | 12.61737 | 10269 ft | 300 kts | 169° |
| 2026-05-04 07:03 | 56.14630 | 12.62798 | 10025 ft | 296 kts | 169° |
| 2026-05-04 07:04 | 56.12661 | 12.63844 | 9709 ft | 295 kts | 169° |
| 2026-05-04 07:04 | 56.10697 | 12.64886 | 9374 ft | 294 kts | 169° |
| 2026-05-04 07:04 | 56.08767 | 12.65912 | 9045 ft | 293 kts | 169° |
| 2026-05-04 07:04 | 56.06814 | 12.66946 | 8626 ft | 296 kts | 168° |
| 2026-05-04 07:05 | 56.04824 | 12.67997 | 8137 ft | 300 kts | 168° |
| 2026-05-04 07:05 | 56.02809 | 12.69063 | 7639 ft | 303 kts | 168° |
| 2026-05-04 07:05 | 56.00800 | 12.70131 | 7175 ft | 297 kts | 168° |
| 2026-05-04 07:05 | 55.98842 | 12.71180 | 6702 ft | 290 kts | 167° |
| 2026-05-04 07:06 | 55.95051 | 12.73187 | 5753 ft | 280 kts | 167° |
| 2026-05-04 07:06 | 55.93166 | 12.74176 | 5261 ft | 285 kts | 167° |
| 2026-05-04 07:06 | 55.91904 | 12.74858 | 4948 ft | 288 kts | 163° |
| 2026-05-04 07:07 | 55.90131 | 12.76604 | 4460 ft | 296 kts | 147° |
| 2026-05-04 07:08 | 55.79343 | 12.89907 | 3020 ft | 238 kts | 177° |
| 2026-05-04 07:09 | 55.77732 | 12.89688 | 3027 ft | 230 kts | 203° |
| 2026-05-04 07:09 | 55.76392 | 12.88355 | 3020 ft | 211 kts | 225° |
| 2026-05-04 07:09 | 55.75323 | 12.86686 | 3024 ft | 200 kts | 226° |
| 2026-05-04 07:09 | 55.74292 | 12.85064 | 3023 ft | 197 kts | 226° |
| 2026-05-04 07:10 | 55.73275 | 12.83472 | 2855 ft | 194 kts | 227° |
| 2026-05-04 07:10 | 55.72261 | 12.81886 | 2612 ft | 193 kts | 227° |
| 2026-05-04 07:12 | 55.66354 | 12.72687 | 1079 ft | 138 kts | 227° |
| 2026-05-04 07:12 | 55.65632 | 12.71562 | 901 ft | 138 kts | 226° |
| 2026-05-04 07:12 | 55.64917 | 12.70456 | 769 ft | 136 kts | 226° |
| 2026-05-04 07:12 | 55.64217 | 12.69349 | 533 ft | 134 kts | 227° |
| 2026-05-04 07:13 | 55.63520 | 12.68269 | 339 ft | 133 kts | 227° |
| 2026-05-04 07:13 | 55.62962 | 12.67404 | 174 ft | 133 kts | 226° |
| 2026-05-04 07:13 | 55.62372 | 12.66565 | 34 ft | 123 kts | 231° |
| 2026-05-04 07:14 | 55.61194 | 12.64287 | 17 ft | 27 kts | 255° |
| 2026-05-04 07:14 | 55.61251 | 12.64108 | 18 ft | 15 kts | 360° |
| 2026-05-04 07:15 | 55.61344 | 12.64188 | 21 ft | 16 kts | 34° |
| 2026-05-04 07:15 | 55.61440 | 12.64299 | 22 ft | 17 kts | 32° |
| 2026-05-04 07:15 | 55.61540 | 12.64412 | 23 ft | 18 kts | 33° |
| 2026-05-04 07:15 | 55.61652 | 12.64540 | 23 ft | 20 kts | 32° |
| 2026-05-04 07:16 | 55.61782 | 12.64691 | 21 ft | 24 kts | 32° |
| 2026-05-04 07:16 | 55.61933 | 12.64866 | 18 ft | 28 kts | 33° |
| 2026-05-04 07:16 | 55.62095 | 12.65045 | 23 ft | 27 kts | 32° |
| 2026-05-04 07:16 | 55.62219 | 12.65190 | 23 ft | 20 kts | 24° |
| 2026-05-04 07:17 | 55.62353 | 12.65193 | 21 ft | 21 kts | 358° |
| 2026-05-04 07:17 | 55.62499 | 12.65182 | 20 ft | 20 kts | 358° |
| 2026-05-04 07:17 | 55.62631 | 12.65192 | 19 ft | 17 kts | 33° |
| 2026-05-04 07:17 | 55.62705 | 12.65316 | 18 ft | 13 kts | 17° |
| 2026-05-04 07:18 | 55.62725 | 12.65326 | 19 ft | 0 kts | 15° |